Inkster, Michigan
Current Conditions -  °F | °C
As of 11:53 AM on Monday 22 Dec 2014 (Local Time) from KDTW Reporting Station
Broken Clouds Broken Clouds  
Wind Chill: 29°   Ceiling: 23000
Heat Index: 35°   Visibility: 7mi
Dew Point: 29°   Wind: 7mph
Humidity: 78%   Direction: 80°E
Pressure: 30.05"   Gusts: NA
Location:  42.3°N, 83.31°W
Report Text: KDTW 221653Z 08006KT 7SM FEW140 BKN230 02/M02 A3005 RMK AO2 SLP182 T00171017
Loading
Personal Weather Stations






























Interactive Weather Map New forecast layout! Learn more

10-Day Weather Forecast

Advertisements
Track Severe Weather on mobile